sensor_id;sensor_type;location;lat;lon;timestamp;pressure;altitude;pressure_sealevel;temperature;humidity
41140;BME280;26881;48.784;9.192;2023-03-03T00:02:08;98842.09;;;4.21;71.76
41140;BME280;26881;48.784;9.192;2023-03-03T00:07:30;98840.94;;;4.02;72.91
41140;BME280;26881;48.784;9.192;2023-03-03T00:12:52;98849.72;;;3.96;73.19
41140;BME280;26881;48.784;9.192;2023-03-03T00:18:21;98842.50;;;4.08;72.41
41140;BME280;26881;48.784;9.192;2023-03-03T00:23:46;98840.00;;;4.05;72.29
41140;BME280;26881;48.784;9.192;2023-03-03T00:34:44;98845.31;;;4.00;72.38
41140;BME280;26881;48.784;9.192;2023-03-03T00:40:19;98842.69;;;4.01;72.38
41140;BME280;26881;48.784;9.192;2023-03-03T00:45:44;98830.94;;;3.90;72.82
41140;BME280;26881;48.784;9.192;2023-03-03T00:56:43;98836.13;;;3.57;74.94
41140;BME280;26881;48.784;9.192;2023-03-03T01:02:06;98833.78;;;3.80;73.81
41140;BME280;26881;48.784;9.192;2023-03-03T01:07:28;98829.34;;;3.84;73.78
41140;BME280;26881;48.784;9.192;2023-03-03T01:12:49;98828.41;;;3.87;73.41
41140;BME280;26881;48.784;9.192;2023-03-03T01:18:11;98825.38;;;3.72;74.03
41140;BME280;26881;48.784;9.192;2023-03-03T01:23:33;98825.63;;;3.94;73.42
41140;BME280;26881;48.784;9.192;2023-03-03T01:28:55;98831.09;;;3.84;73.08
41140;BME280;26881;48.784;9.192;2023-03-03T01:34:17;98830.38;;;3.78;73.54
41140;BME280;26881;48.784;9.192;2023-03-03T01:39:38;98840.63;;;3.82;73.48
41140;BME280;26881;48.784;9.192;2023-03-03T01:45:31;98827.06;;;3.73;73.26
41140;BME280;26881;48.784;9.192;2023-03-03T01:51:01;98824.31;;;3.47;74.46
41140;BME280;26881;48.784;9.192;2023-03-03T01:56:24;98827.09;;;3.41;75.37
41140;BME280;26881;48.784;9.192;2023-03-03T02:01:47;98820.94;;;3.45;74.84
41140;BME280;26881;48.784;9.192;2023-03-03T02:07:10;98816.41;;;3.53;74.07
41140;BME280;26881;48.784;9.192;2023-03-03T02:12:38;98811.56;;;3.41;74.84
41140;BME280;26881;48.784;9.192;2023-03-03T02:18:05;98812.66;;;3.32;75.34
41140;BME280;26881;48.784;9.192;2023-03-03T02:23:35;98803.28;;;3.28;75.60
41140;BME280;26881;48.784;9.192;2023-03-03T02:28:58;98805.84;;;3.28;75.56
41140;BME280;26881;48.784;9.192;2023-03-03T02:34:20;98807.72;;;3.23;75.84
41140;BME280;26881;48.784;9.192;2023-03-03T02:39:42;98798.25;;;3.22;75.62
41140;BME280;26881;48.784;9.192;2023-03-03T02:45:05;98805.72;;;2.98;76.64
41140;BME280;26881;48.784;9.192;2023-03-03T02:50:27;98813.53;;;2.97;77.30
41140;BME280;26881;48.784;9.192;2023-03-03T02:55:49;98815.00;;;3.07;76.69
41140;BME280;26881;48.784;9.192;2023-03-03T03:01:11;98823.31;;;3.20;76.48
41140;BME280;26881;48.784;9.192;2023-03-03T03:06:32;98818.16;;;3.20;76.20
41140;BME280;26881;48.784;9.192;2023-03-03T03:11:54;98823.13;;;3.26;75.73
41140;BME280;26881;48.784;9.192;2023-03-03T03:17:16;98818.91;;;3.23;75.89
41140;BME280;26881;48.784;9.192;2023-03-03T03:22:38;98817.81;;;3.32;75.65
41140;BME280;26881;48.784;9.192;2023-03-03T03:28:00;98816.91;;;3.33;75.51
41140;BME280;26881;48.784;9.192;2023-03-03T03:33:23;98821.09;;;3.38;75.37
41140;BME280;26881;48.784;9.192;2023-03-03T03:38:44;98819.75;;;3.56;74.58
41140;BME280;26881;48.784;9.192;2023-03-03T03:44:06;98813.69;;;3.59;74.14
41140;BME280;26881;48.784;9.192;2023-03-03T03:49:28;98814.53;;;3.59;74.08
41140;BME280;26881;48.784;9.192;2023-03-03T03:54:50;98816.34;;;3.87;73.84
41140;BME280;26881;48.784;9.192;2023-03-03T04:00:12;98822.03;;;3.98;72.60
41140;BME280;26881;48.784;9.192;2023-03-03T04:05:34;98815.53;;;3.85;73.01
41140;BME280;26881;48.784;9.192;2023-03-03T04:10:55;98815.72;;;3.77;72.95
41140;BME280;26881;48.784;9.192;2023-03-03T04:16:17;98817.31;;;3.83;73.08
41140;BME280;26881;48.784;9.192;2023-03-03T04:21:39;98818.34;;;4.07;71.94
41140;BME280;26881;48.784;9.192;2023-03-03T04:27:01;98831.81;;;3.89;72.17
41140;BME280;26881;48.784;9.192;2023-03-03T04:32:22;98832.69;;;4.19;70.95
41140;BME280;26881;48.784;9.192;2023-03-03T04:37:44;98834.41;;;4.20;70.26
41140;BME280;26881;48.784;9.192;2023-03-03T04:43:06;98834.22;;;3.96;71.67
41140;BME280;26881;48.784;9.192;2023-03-03T04:48:28;98837.53;;;4.00;71.25
41140;BME280;26881;48.784;9.192;2023-03-03T04:53:50;98848.22;;;4.19;70.50
41140;BME280;26881;48.784;9.192;2023-03-03T04:59:12;98855.53;;;4.05;71.52
41140;BME280;26881;48.784;9.192;2023-03-03T05:04:35;98851.25;;;4.04;71.11
41140;BME280;26881;48.784;9.192;2023-03-03T05:09:57;98848.13;;;3.92;71.61
41140;BME280;26881;48.784;9.192;2023-03-03T05:15:19;98849.66;;;3.98;71.70
41140;BME280;26881;48.784;9.192;2023-03-03T05:20:40;98845.34;;;3.98;71.63
41140;BME280;26881;48.784;9.192;2023-03-03T05:26:03;98854.38;;;4.15;70.56
41140;BME280;26881;48.784;9.192;2023-03-03T05:31:25;98863.28;;;4.05;70.93
41140;BME280;26881;48.784;9.192;2023-03-03T05:36:47;98854.84;;;3.98;71.12
41140;BME280;26881;48.784;9.192;2023-03-03T05:42:11;98864.03;;;3.77;70.38
41140;BME280;26881;48.784;9.192;2023-03-03T05:47:33;98877.75;;;3.80;70.97
41140;BME280;26881;48.784;9.192;2023-03-03T05:52:55;98882.25;;;4.05;69.47
41140;BME280;26881;48.784;9.192;2023-03-03T05:58:17;98882.09;;;4.11;68.22
41140;BME280;26881;48.784;9.192;2023-03-03T06:03:39;98885.34;;;3.87;68.74
41140;BME280;26881;48.784;9.192;2023-03-03T06:09:01;98887.81;;;3.91;68.72
41140;BME280;26881;48.784;9.192;2023-03-03T06:14:23;98886.38;;;3.81;68.89
41140;BME280;26881;48.784;9.192;2023-03-03T06:19:47;98899.66;;;4.00;67.32
41140;BME280;26881;48.784;9.192;2023-03-03T06:25:09;98896.97;;;4.03;67.36
41140;BME280;26881;48.784;9.192;2023-03-03T06:30:32;98900.22;;;3.78;67.81
41140;BME280;26881;48.784;9.192;2023-03-03T06:35:54;98912.31;;;4.11;67.00
41140;BME280;26881;48.784;9.192;2023-03-03T06:41:16;98914.97;;;4.08;66.13
41140;BME280;26881;48.784;9.192;2023-03-03T06:46:38;98924.94;;;3.90;66.77
41140;BME280;26881;48.784;9.192;2023-03-03T06:52:01;98922.19;;;3.96;66.49
41140;BME280;26881;48.784;9.192;2023-03-03T06:57:32;98934.31;;;3.94;66.28
41140;BME280;26881;48.784;9.192;2023-03-03T07:03:21;98933.97;;;4.07;65.90
41140;BME280;26881;48.784;9.192;2023-03-03T07:08:44;98934.47;;;4.19;65.87
41140;BME280;26881;48.784;9.192;2023-03-03T07:14:14;98946.59;;;4.19;65.24
41140;BME280;26881;48.784;9.192;2023-03-03T07:19:36;98959.09;;;4.03;65.49
41140;BME280;26881;48.784;9.192;2023-03-03T07:25:05;98948.22;;;4.23;65.14
41140;BME280;26881;48.784;9.192;2023-03-03T07:30:39;98955.47;;;4.10;65.44
41140;BME280;26881;48.784;9.192;2023-03-03T07:36:02;98947.72;;;4.10;64.86
41140;BME280;26881;48.784;9.192;2023-03-03T07:41:24;98953.59;;;4.15;65.09
41140;BME280;26881;48.784;9.192;2023-03-03T07:46:47;98957.50;;;4.30;64.23
41140;BME280;26881;48.784;9.192;2023-03-03T07:52:23;98959.41;;;4.23;64.05
41140;BME280;26881;48.784;9.192;2023-03-03T07:57:46;98956.53;;;4.34;63.91
41140;BME280;26881;48.784;9.192;2023-03-03T08:03:16;98966.00;;;4.35;63.17
41140;BME280;26881;48.784;9.192;2023-03-03T08:08:40;98974.91;;;4.56;62.85
41140;BME280;26881;48.784;9.192;2023-03-03T08:14:09;98973.31;;;4.52;62.63
41140;BME280;26881;48.784;9.192;2023-03-03T08:19:32;98971.34;;;4.60;62.71
41140;BME280;26881;48.784;9.192;2023-03-03T08:24:54;98972.97;;;4.64;62.71
41140;BME280;26881;48.784;9.192;2023-03-03T08:30:16;98975.63;;;4.91;62.14
41140;BME280;26881;48.784;9.192;2023-03-03T08:35:38;98972.72;;;4.72;61.46
41140;BME280;26881;48.784;9.192;2023-03-03T08:41:00;98968.28;;;4.46;61.99
41140;BME280;26881;48.784;9.192;2023-03-03T08:46:22;98966.78;;;4.37;62.69
41140;BME280;26881;48.784;9.192;2023-03-03T08:51:44;98987.13;;;4.20;63.70
41140;BME280;26881;48.784;9.192;2023-03-03T08:57:06;98980.78;;;4.32;64.07
41140;BME280;26881;48.784;9.192;2023-03-03T09:02:28;98985.16;;;4.28;64.34
41140;BME280;26881;48.784;9.192;2023-03-03T09:07:50;98994.13;;;4.79;62.45
41140;BME280;26881;48.784;9.192;2023-03-03T09:13:14;98995.94;;;4.75;62.32
41140;BME280;26881;48.784;9.192;2023-03-03T09:18:38;99000.44;;;5.00;60.96
41140;BME280;26881;48.784;9.192;2023-03-03T09:24:00;99009.97;;;4.99;61.87
41140;BME280;26881;48.784;9.192;2023-03-03T09:29:30;99010.25;;;5.18;61.63
41140;BME280;26881;48.784;9.192;2023-03-03T09:34:58;99009.50;;;5.43;60.73
41140;BME280;26881;48.784;9.192;2023-03-03T09:52:19;98996.00;;;5.60;59.59
41140;BME280;26881;48.784;9.192;2023-03-03T09:58:00;98999.69;;;5.79;58.38
41140;BME280;26881;48.784;9.192;2023-03-03T10:20:55;99007.13;;;6.42;57.62
41140;BME280;26881;48.784;9.192;2023-03-03T10:32:27;99000.03;;;6.22;57.87
41140;BME280;26881;48.784;9.192;2023-03-03T10:37:55;99008.81;;;6.43;57.38
41140;BME280;26881;48.784;9.192;2023-03-03T10:43:39;98998.00;;;6.55;57.81
41140;BME280;26881;48.784;9.192;2023-03-03T11:00:30;98991.56;;;6.65;56.63
41140;BME280;26881;48.784;9.192;2023-03-03T11:05:57;98998.69;;;6.84;56.05
41140;BME280;26881;48.784;9.192;2023-03-03T11:11:37;98990.72;;;6.88;56.60
41140;BME280;26881;48.784;9.192;2023-03-03T11:22:40;98998.56;;;7.10;55.74
41140;BME280;26881;48.784;9.192;2023-03-03T11:39:13;99003.34;;;7.43;56.15
41140;BME280;26881;48.784;9.192;2023-03-03T11:44:40;98988.84;;;7.37;56.14
41140;BME280;26881;48.784;9.192;2023-03-03T11:50:11;98988.06;;;7.35;54.49
41140;BME280;26881;48.784;9.192;2023-03-03T11:55:37;98985.81;;;7.48;54.61
41140;BME280;26881;48.784;9.192;2023-03-03T12:01:21;98979.47;;;7.55;54.22
41140;BME280;26881;48.784;9.192;2023-03-03T12:12:44;98956.25;;;7.92;52.79
41140;BME280;26881;48.784;9.192;2023-03-03T12:18:26;98958.22;;;8.07;52.69
41140;BME280;26881;48.784;9.192;2023-03-03T12:29:35;98946.59;;;8.55;50.79
41140;BME280;26881;48.784;9.192;2023-03-03T12:41:06;98941.19;;;8.79;50.61
41140;BME280;26881;48.784;9.192;2023-03-03T12:46:45;98938.81;;;8.93;49.79
41140;BME280;26881;48.784;9.192;2023-03-03T12:52:29;98927.94;;;9.02;49.17
41140;BME280;26881;48.784;9.192;2023-03-03T13:03:39;98931.72;;;9.14;48.76
41140;BME280;26881;48.784;9.192;2023-03-03T13:14:51;98930.84;;;9.14;49.25
41140;BME280;26881;48.784;9.192;2023-03-03T13:20:48;98928.25;;;9.14;49.23
41140;BME280;26881;48.784;9.192;2023-03-03T13:26:22;98926.28;;;9.19;48.47
41140;BME280;26881;48.784;9.192;2023-03-03T13:31:48;98925.28;;;9.21;49.30
41140;BME280;26881;48.784;9.192;2023-03-03T13:37:48;98912.09;;;9.24;49.28
41140;BME280;26881;48.784;9.192;2023-03-03T13:43:25;98911.03;;;9.46;48.69
41140;BME280;26881;48.784;9.192;2023-03-03T13:49:01;98902.31;;;9.47;48.32
41140;BME280;26881;48.784;9.192;2023-03-03T14:00:31;98903.44;;;9.41;48.58
41140;BME280;26881;48.784;9.192;2023-03-03T14:06:08;98910.81;;;9.33;47.87
41140;BME280;26881;48.784;9.192;2023-03-03T14:12:02;98889.59;;;9.22;48.33
41140;BME280;26881;48.784;9.192;2023-03-03T14:17:37;98888.69;;;9.40;48.60
41140;BME280;26881;48.784;9.192;2023-03-03T14:23:29;98885.25;;;9.40;47.95
41140;BME280;26881;48.784;9.192;2023-03-03T14:29:12;98887.84;;;9.57;48.29
41140;BME280;26881;48.784;9.192;2023-03-03T14:34:39;98885.34;;;9.56;48.13
41140;BME280;26881;48.784;9.192;2023-03-03T14:40:15;98875.03;;;9.53;47.96
41140;BME280;26881;48.784;9.192;2023-03-03T14:45:39;98876.75;;;9.54;47.92
41140;BME280;26881;48.784;9.192;2023-03-03T14:51:24;98881.50;;;9.63;47.92
41140;BME280;26881;48.784;9.192;2023-03-03T14:57:56;98884.41;;;9.57;48.19
41140;BME280;26881;48.784;9.192;2023-03-03T15:08:13;98869.88;;;9.68;47.43
41140;BME280;26881;48.784;9.192;2023-03-03T15:13:37;98870.06;;;9.65;47.93
41140;BME280;26881;48.784;9.192;2023-03-03T15:19:35;98874.03;;;9.55;48.02
41140;BME280;26881;48.784;9.192;2023-03-03T15:25:20;98864.38;;;9.75;47.74
41140;BME280;26881;48.784;9.192;2023-03-03T15:36:49;98865.75;;;9.47;48.80
41140;BME280;26881;48.784;9.192;2023-03-03T15:42:14;98864.38;;;9.40;49.30
41140;BME280;26881;48.784;9.192;2023-03-03T15:53:56;98865.19;;;9.58;48.89
41140;BME280;26881;48.784;9.192;2023-03-03T15:59:38;98861.50;;;9.62;48.45
41140;BME280;26881;48.784;9.192;2023-03-03T16:05:21;98863.22;;;9.63;47.92
41140;BME280;26881;48.784;9.192;2023-03-03T16:11:06;98871.03;;;9.45;49.15
41140;BME280;26881;48.784;9.192;2023-03-03T16:17:00;98875.19;;;9.49;48.96
41140;BME280;26881;48.784;9.192;2023-03-03T16:22:45;98883.19;;;9.46;48.83
41140;BME280;26881;48.784;9.192;2023-03-03T16:28:18;98885.03;;;9.44;48.64
41140;BME280;26881;48.784;9.192;2023-03-03T16:33:56;98883.75;;;9.17;50.58
41140;BME280;26881;48.784;9.192;2023-03-03T16:39:55;98898.13;;;9.25;49.91
41140;BME280;26881;48.784;9.192;2023-03-03T16:45:26;98901.41;;;9.12;50.73
41140;BME280;26881;48.784;9.192;2023-03-03T17:13:44;98941.63;;;8.70;51.98
41140;BME280;26881;48.784;9.192;2023-03-03T17:59:26;98991.31;;;8.05;55.09
41140;BME280;26881;48.784;9.192;2023-03-03T18:17:03;99012.06;;;7.86;55.65
41140;BME280;26881;48.784;9.192;2023-03-03T18:22:45;99008.84;;;7.79;56.25
41140;BME280;26881;48.784;9.192;2023-03-03T18:39:34;99025.16;;;7.63;56.69
41140;BME280;26881;48.784;9.192;2023-03-03T18:45:54;99031.97;;;7.43;56.58
41140;BME280;26881;48.784;9.192;2023-03-03T18:50:51;99035.56;;;7.41;57.25
41140;BME280;26881;48.784;9.192;2023-03-03T19:02:36;99047.91;;;7.35;57.80
41140;BME280;26881;48.784;9.192;2023-03-03T19:08:16;99051.59;;;7.30;58.12
41140;BME280;26881;48.784;9.192;2023-03-03T19:13:42;99062.84;;;7.07;58.78
41140;BME280;26881;48.784;9.192;2023-03-03T19:19:14;99053.84;;;7.15;58.40
41140;BME280;26881;48.784;9.192;2023-03-03T19:24:39;99053.81;;;6.93;59.63
41140;BME280;26881;48.784;9.192;2023-03-03T19:30:27;99061.59;;;6.93;59.58
41140;BME280;26881;48.784;9.192;2023-03-03T19:36:04;99071.63;;;6.81;60.57
41140;BME280;26881;48.784;9.192;2023-03-03T19:52:38;99076.06;;;6.77;61.24
41140;BME280;26881;48.784;9.192;2023-03-03T20:09:12;99082.91;;;6.80;59.61
41140;BME280;26881;48.784;9.192;2023-03-03T20:15:03;99085.34;;;6.84;59.52
41140;BME280;26881;48.784;9.192;2023-03-03T20:26:25;99093.72;;;6.67;60.27
41140;BME280;26881;48.784;9.192;2023-03-03T20:38:00;99095.41;;;6.43;61.32
41140;BME280;26881;48.784;9.192;2023-03-03T20:43:46;99101.50;;;6.42;60.98
41140;BME280;26881;48.784;9.192;2023-03-03T20:55:16;99100.25;;;6.01;62.69
41140;BME280;26881;48.784;9.192;2023-03-03T21:01:04;99110.44;;;6.08;62.30
41140;BME280;26881;48.784;9.192;2023-03-03T21:06:36;99120.31;;;5.97;62.28
41140;BME280;26881;48.784;9.192;2023-03-03T21:12:01;99114.56;;;5.86;62.74
41140;BME280;26881;48.784;9.192;2023-03-03T21:17:30;99117.53;;;5.74;63.67
41140;BME280;26881;48.784;9.192;2023-03-03T21:22:53;99116.03;;;5.66;64.19
41140;BME280;26881;48.784;9.192;2023-03-03T21:28:23;99122.41;;;5.55;64.20
41140;BME280;26881;48.784;9.192;2023-03-03T21:39:23;99128.22;;;5.33;65.21
41140;BME280;26881;48.784;9.192;2023-03-03T21:44:47;99127.56;;;5.26;66.04
41140;BME280;26881;48.784;9.192;2023-03-03T21:50:10;99124.84;;;5.31;65.66
41140;BME280;26881;48.784;9.192;2023-03-03T21:55:32;99126.19;;;5.44;65.24
41140;BME280;26881;48.784;9.192;2023-03-03T22:00:55;99123.88;;;5.34;64.57
41140;BME280;26881;48.784;9.192;2023-03-03T22:06:16;99117.97;;;5.30;64.94
41140;BME280;26881;48.784;9.192;2023-03-03T22:11:38;99121.44;;;5.29;65.31
41140;BME280;26881;48.784;9.192;2023-03-03T22:17:01;99134.69;;;5.20;65.24
41140;BME280;26881;48.784;9.192;2023-03-03T22:22:22;99127.69;;;5.22;65.31
41140;BME280;26881;48.784;9.192;2023-03-03T22:27:44;99132.09;;;5.20;65.85
41140;BME280;26881;48.784;9.192;2023-03-03T22:33:06;99126.13;;;5.16;65.81
41140;BME280;26881;48.784;9.192;2023-03-03T22:38:28;99127.19;;;5.09;65.98
41140;BME280;26881;48.784;9.192;2023-03-03T22:43:50;99118.50;;;5.10;65.59
41140;BME280;26881;48.784;9.192;2023-03-03T22:49:12;99127.41;;;5.01;65.83
41140;BME280;26881;48.784;9.192;2023-03-03T22:54:34;99122.47;;;4.92;66.30
41140;BME280;26881;48.784;9.192;2023-03-03T22:59:55;99134.78;;;4.84;66.68
41140;BME280;26881;48.784;9.192;2023-03-03T23:05:17;99141.75;;;4.82;66.10
41140;BME280;26881;48.784;9.192;2023-03-03T23:10:39;99143.00;;;5.00;65.93
41140;BME280;26881;48.784;9.192;2023-03-03T23:16:01;99147.13;;;4.76;66.65
41140;BME280;26881;48.784;9.192;2023-03-03T23:21:23;99146.31;;;4.72;67.22
41140;BME280;26881;48.784;9.192;2023-03-03T23:26:45;99144.56;;;4.74;67.18
41140;BME280;26881;48.784;9.192;2023-03-03T23:32:07;99144.66;;;4.70;67.44
41140;BME280;26881;48.784;9.192;2023-03-03T23:37:29;99150.47;;;4.79;66.64
41140;BME280;26881;48.784;9.192;2023-03-03T23:42:50;99153.03;;;4.79;66.42
41140;BME280;26881;48.784;9.192;2023-03-03T23:48:12;99157.34;;;4.80;66.68
41140;BME280;26881;48.784;9.192;2023-03-03T23:53:34;99159.19;;;4.75;66.84
41140;BME280;26881;48.784;9.192;2023-03-03T23:58:56;99158.22;;;4.79;66.84
